Time;durP1;ratioP1;P1;durP2;ratioP2;P2;SDS_P1;SDS_P2;PMS_P1;PMS_P2;Temp;Humidity;BMP_temperature;BMP_pressure;BME280_temperature;BME280_humidity;BME280_pressure;Samples;Min_cycle;Max_cycle;Signal;HPM_P1;HPM_P2
2024/01/12 00:01:24;;;;;;;0.20;0.20;;;;;;;-6.74;100.00;97893.44;6113994;23;20400;-76
2024/01/12 00:04:10;;;;;;;0.20;0.20;;;;;;;-6.79;100.00;97907.69;6137847;23;20025;-75
2024/01/12 00:06:56;;;;;;;0.20;0.20;;;;;;;-6.63;100.00;97913.50;6135191;23;20032;-76
2024/01/12 00:09:43;;;;;;;0.20;0.20;;;;;;;-6.61;100.00;97909.06;6136639;23;20025;-75
2024/01/12 00:12:29;;;;;;;0.20;0.20;;;;;;;-6.75;100.00;97911.78;6135427;23;20639;-76
2024/01/12 00:15:15;;;;;;;0.10;0.10;;;;;;;-6.77;100.00;97914.50;6116308;23;20061;-76
2024/01/12 00:18:01;;;;;;;0.20;0.20;;;;;;;-6.65;100.00;97912.78;6136586;23;20057;-76
2024/01/12 00:20:47;;;;;;;0.20;0.20;;;;;;;-6.56;100.00;97919.13;6137948;23;20080;-76
2024/01/12 00:23:32;;;;;;;0.20;0.20;;;;;;;-6.51;100.00;97919.66;6134149;23;20026;-75
2024/01/12 00:26:18;;;;;;;0.20;0.20;;;;;;;-6.60;100.00;97920.31;6135046;23;20433;-76
2024/01/12 00:29:04;;;;;;;0.20;0.20;;;;;;;-6.76;100.00;97902.31;6137332;23;20025;-75
2024/01/12 00:31:50;;;;;;;0.20;0.20;;;;;;;-7.04;100.00;97901.56;6136357;23;20021;-76
2024/01/12 00:34:36;;;;;;;0.20;0.20;;;;;;;-6.90;100.00;97903.25;6136409;23;20029;-75
2024/01/12 00:37:22;;;;;;;0.10;0.10;;;;;;;-7.01;100.00;97903.94;6135885;23;20471;-75
2024/01/12 00:40:08;;;;;;;0.10;0.10;;;;;;;-7.05;100.00;97905.13;6139560;23;20079;-75
2024/01/12 00:42:54;;;;;;;0.10;0.10;;;;;;;-6.87;100.00;97892.59;6134977;23;20026;-76
2024/01/12 00:45:40;;;;;;;0.20;0.20;;;;;;;-6.87;100.00;97886.56;6136925;23;20451;-75
2024/01/12 00:48:26;;;;;;;0.20;0.20;;;;;;;-6.70;100.00;97886.22;6136249;23;20063;-75
2024/01/12 00:51:12;;;;;;;0.20;0.20;;;;;;;-6.59;100.00;97898.53;6138175;23;20032;-75
2024/01/12 00:53:58;;;;;;;0.20;0.20;;;;;;;-6.51;100.00;97898.81;6137572;23;20026;-75
2024/01/12 00:56:43;;;;;;;0.20;0.20;;;;;;;-6.59;100.00;97906.34;6135638;23;20025;-77
2024/01/12 00:59:29;;;;;;;0.15;0.15;;;;;;;-6.78;100.00;97917.16;6117876;23;20025;-76
2024/01/12 01:02:15;;;;;;;0.30;0.30;;;;;;;-6.95;100.00;97894.91;6135284;23;20034;-75
2024/01/12 01:05:02;;;;;;;0.30;0.30;;;;;;;-6.87;100.00;97905.63;6134925;23;20025;-76
2024/01/12 01:07:47;;;;;;;0.20;0.20;;;;;;;-6.93;100.00;97910.41;6134856;23;20049;-77
2024/01/12 01:10:33;;;;;;;0.20;0.20;;;;;;;-6.98;100.00;97912.50;6136246;23;20029;-75
2024/01/12 01:13:19;;;;;;;0.30;0.30;;;;;;;-7.22;100.00;97922.81;6136475;23;20025;-76
2024/01/12 01:16:05;;;;;;;0.20;0.20;;;;;;;-7.14;100.00;97916.16;6136503;23;20056;-74
2024/01/12 01:18:51;;;;;;;0.10;0.10;;;;;;;-6.99;100.00;97903.88;6136494;23;20671;-75
2024/01/12 01:21:37;;;;;;;0.20;0.20;;;;;;;-7.02;100.00;97907.50;6135997;23;20024;-75
2024/01/12 01:24:29;;;;;;;0.20;0.20;;;;;;;-6.91;100.00;97913.75;6137285;23;20051;-74
2024/01/12 01:27:14;;;;;;;0.20;0.20;;;;;;;-6.80;100.00;97919.06;6136520;23;20079;-77
2024/01/12 01:30:00;;;;;;;0.20;0.20;;;;;;;-6.86;100.00;97909.88;6135229;23;20021;-76
2024/01/12 01:32:47;;;;;;;0.20;0.20;;;;;;;-6.98;100.00;97902.09;6102949;23;20018;-77
2024/01/12 01:35:34;;;;;;;0.20;0.20;;;;;;;-6.97;100.00;97901.16;6107105;23;20394;-74
2024/01/12 01:38:20;;;;;;;0.10;0.10;;;;;;;-6.92;100.00;97906.91;6107786;23;20504;-75
2024/01/12 01:41:05;;;;;;;0.20;0.20;;;;;;;-6.97;100.00;97907.19;6108028;23;20030;-74
2024/01/12 01:43:51;;;;;;;0.20;0.20;;;;;;;-6.88;100.00;97905.72;6107761;23;20361;-74
2024/01/12 01:46:37;;;;;;;0.20;0.20;;;;;;;-7.00;100.00;97915.22;6108116;23;20032;-76
2024/01/12 01:49:24;;;;;;;0.20;0.20;;;;;;;-6.95;100.00;97915.72;6109076;23;20433;-74
2024/01/12 01:52:10;;;;;;;0.10;0.10;;;;;;;-7.05;100.00;97918.13;6108484;23;20022;-74
2024/01/12 01:54:57;;;;;;;0.20;0.20;;;;;;;-6.96;100.00;97915.84;6106486;23;20457;-76
2024/01/12 01:57:43;;;;;;;0.20;0.20;;;;;;;-6.95;100.00;97910.50;6107964;23;20029;-75
2024/01/12 02:00:31;;;;;;;0.20;0.20;;;;;;;-6.91;100.00;97916.38;6110001;23;20531;-74
2024/01/12 02:03:17;;;;;;;0.20;0.20;;;;;;;-7.00;100.00;97923.03;6136656;23;20025;-76
2024/01/12 02:06:04;;;;;;;0.20;0.20;;;;;;;-6.95;100.00;97925.31;6137443;23;20025;-76
2024/01/12 02:08:50;;;;;;;0.20;0.20;;;;;;;-6.97;100.00;97916.78;6137680;23;20532;-77
2024/01/12 02:11:36;;;;;;;0.20;0.20;;;;;;;-6.87;100.00;97923.84;6138593;23;20080;-74
2024/01/12 02:14:22;;;;;;;0.20;0.20;;;;;;;-6.48;100.00;97920.25;6138126;23;20079;-75
2024/01/12 02:17:08;;;;;;;0.20;0.20;;;;;;;-6.40;100.00;97916.28;6136498;23;20025;-75
2024/01/12 02:19:58;;;;;;;0.20;0.20;;;;;;;-6.11;100.00;97911.63;6137461;23;20025;-75
2024/01/12 02:22:44;;;;;;;0.20;0.20;;;;;;;-6.22;100.00;97910.63;6137864;23;20345;-78
2024/01/12 02:25:30;;;;;;;0.20;0.20;;;;;;;-5.97;100.00;97909.72;6138419;23;20076;-77
2024/01/12 02:28:16;;;;;;;0.20;0.20;;;;;;;-5.73;100.00;97924.50;6137087;23;20175;-74
2024/01/12 02:31:02;;;;;;;0.20;0.20;;;;;;;-5.65;100.00;97914.34;6108212;23;20054;-75
2024/01/12 02:33:49;;;;;;;0.20;0.20;;;;;;;-5.54;100.00;97916.97;6108135;23;20025;-75
2024/01/12 02:36:35;;;;;;;0.20;0.20;;;;;;;-5.40;100.00;97903.75;6108458;23;20026;-77
2024/01/12 02:39:20;;;;;;;0.20;0.20;;;;;;;-5.32;100.00;97908.41;6108453;23;20108;-75
2024/01/12 02:42:06;;;;;;;0.20;0.20;;;;;;;-5.24;100.00;97903.44;6107504;23;20405;-74
2024/01/12 02:44:52;;;;;;;0.20;0.20;;;;;;;-5.08;100.00;97909.16;6108682;23;20396;-75
2024/01/12 02:47:41;;;;;;;0.13;0.13;;;;;;;-5.01;100.00;97903.50;6106815;23;20022;-77
2024/01/12 02:50:27;;;;;;;0.20;0.20;;;;;;;-5.02;100.00;97894.81;6108159;23;20021;-76
2024/01/12 02:53:13;;;;;;;0.20;0.20;;;;;;;-4.89;100.00;97908.63;6107622;23;20134;-76
2024/01/12 02:55:59;;;;;;;0.20;0.20;;;;;;;-4.83;100.00;97887.25;6108763;23;20472;-76
2024/01/12 02:58:45;;;;;;;0.20;0.20;;;;;;;-4.72;100.00;97883.81;6108383;23;20519;-77
2024/01/12 03:01:31;;;;;;;0.20;0.20;;;;;;;-4.43;100.00;97893.78;6122579;23;20029;-75
2024/01/12 03:04:17;;;;;;;0.20;0.20;;;;;;;-4.28;100.00;97882.09;6138825;23;20550;-74
2024/01/12 03:07:03;;;;;;;0.20;0.20;;;;;;;-4.30;100.00;97879.63;6138723;23;20611;-75
2024/01/12 03:09:49;;;;;;;0.20;0.20;;;;;;;-4.27;100.00;97883.78;6138375;23;20400;-76
2024/01/12 03:12:34;;;;;;;0.17;0.17;;;;;;;-4.16;100.00;97886.38;6136756;23;20309;-75
2024/01/12 03:15:20;;;;;;;0.20;0.20;;;;;;;-4.05;100.00;97880.28;6138807;23;20025;-75
2024/01/12 03:18:06;;;;;;;0.20;0.20;;;;;;;-3.88;100.00;97884.19;6137952;23;20022;-75
2024/01/12 03:20:52;;;;;;;0.20;0.20;;;;;;;-3.74;100.00;97892.56;6136702;23;20033;-74
2024/01/12 03:23:38;;;;;;;0.20;0.20;;;;;;;-3.64;100.00;97884.81;6115578;23;20025;-74
2024/01/12 03:26:24;;;;;;;0.20;0.20;;;;;;;-3.62;100.00;97874.22;6139427;23;20337;-75
2024/01/12 03:29:09;;;;;;;0.20;0.20;;;;;;;-3.65;100.00;97877.91;6138676;23;20421;-75
2024/01/12 03:31:55;;;;;;;0.10;0.10;;;;;;;-3.72;100.00;97877.59;6136650;23;20022;-76
2024/01/12 03:34:41;;;;;;;0.20;0.20;;;;;;;-3.75;100.00;97874.38;6138080;23;20461;-77
2024/01/12 03:37:27;;;;;;;0.20;0.20;;;;;;;-3.76;100.00;97876.16;6135319;23;20904;-74
2024/01/12 03:40:13;;;;;;;0.20;0.20;;;;;;;-3.74;100.00;97870.78;6135226;23;20025;-76
2024/01/12 03:42:59;;;;;;;0.20;0.20;;;;;;;-3.73;100.00;97875.09;6136261;23;20041;-76
2024/01/12 03:45:45;;;;;;;0.20;0.20;;;;;;;-3.78;100.00;97865.00;6137734;23;20027;-77
2024/01/12 03:48:31;;;;;;;0.20;0.20;;;;;;;-3.76;100.00;97870.94;6138351;23;20029;-74
2024/01/12 03:51:17;;;;;;;0.20;0.20;;;;;;;-3.73;100.00;97873.31;6137157;23;20353;-76
2024/01/12 03:54:03;;;;;;;0.20;0.20;;;;;;;-3.78;100.00;97865.00;6133602;23;20080;-77
2024/01/12 03:56:49;;;;;;;0.20;0.20;;;;;;;-3.73;100.00;97865.47;6135554;23;20052;-76
2024/01/12 03:59:35;;;;;;;0.20;0.20;;;;;;;-3.71;100.00;97866.16;6137754;23;20092;-75
2024/01/12 04:02:20;;;;;;;0.20;0.20;;;;;;;-3.74;100.00;97869.00;6136606;23;20032;-77
2024/01/12 04:05:07;;;;;;;0.20;0.20;;;;;;;-3.81;100.00;97873.09;6137048;23;20036;-74
2024/01/12 04:07:53;;;;;;;0.20;0.20;;;;;;;-3.77;100.00;97871.88;6135771;23;20021;-75
2024/01/12 04:10:38;;;;;;;0.10;0.10;;;;;;;-3.72;100.00;97861.88;6136456;23;20096;-74
2024/01/12 04:13:24;;;;;;;0.20;0.20;;;;;;;-3.71;100.00;97860.94;6138085;23;20083;-75
2024/01/12 04:16:10;;;;;;;0.25;0.25;;;;;;;-3.91;100.00;97859.09;6136221;23;20017;-76
2024/01/12 04:18:56;;;;;;;0.20;0.20;;;;;;;-3.85;100.00;97848.13;6116088;23;20472;-74
2024/01/12 04:21:42;;;;;;;0.20;0.20;;;;;;;-4.09;100.00;97850.13;6136810;23;20396;-76
2024/01/12 04:24:28;;;;;;;0.20;0.20;;;;;;;-3.98;100.00;97852.69;6118159;23;20113;-74
2024/01/12 04:27:13;;;;;;;0.10;0.10;;;;;;;-3.83;100.00;97850.63;6134991;23;20079;-75
2024/01/12 04:29:59;;;;;;;0.20;0.20;;;;;;;-3.76;100.00;97850.00;6137168;23;20457;-75
2024/01/12 04:32:45;;;;;;;0.20;0.20;;;;;;;-3.67;100.00;97848.41;6106616;23;20036;-76
2024/01/12 04:35:31;;;;;;;0.20;0.20;;;;;;;-3.88;100.00;97835.31;6109639;23;20068;-75
2024/01/12 04:38:17;;;;;;;0.20;0.20;;;;;;;-3.70;100.00;97851.28;6108882;23;20085;-74
2024/01/12 04:41:03;;;;;;;0.20;0.20;;;;;;;-3.60;100.00;97852.19;6107535;23;20524;-76
2024/01/12 04:43:49;;;;;;;0.20;0.20;;;;;;;-3.56;100.00;97847.53;6108575;23;20062;-75
2024/01/12 04:46:34;;;;;;;0.20;0.20;;;;;;;-3.54;100.00;97850.84;6109304;23;20412;-75
2024/01/12 04:49:20;;;;;;;0.20;0.20;;;;;;;-3.46;100.00;97849.28;6109847;23;20096;-77
2024/01/12 04:52:06;;;;;;;0.20;0.20;;;;;;;-3.52;100.00;97848.94;6107715;23;20348;-76
2024/01/12 04:54:52;;;;;;;0.20;0.20;;;;;;;-3.53;100.00;97857.75;6108815;23;20447;-75
2024/01/12 04:57:41;;;;;;;0.20;0.20;;;;;;;-3.47;100.00;97854.63;6108573;23;20060;-76
2024/01/12 05:00:27;;;;;;;0.20;0.20;;;;;;;-3.40;100.00;97855.78;6110976;23;20088;-76
2024/01/12 05:03:12;;;;;;;0.20;0.20;;;;;;;-3.34;100.00;97857.06;6137859;23;20021;-76
2024/01/12 05:05:59;;;;;;;0.20;0.20;;;;;;;-3.36;100.00;97844.91;6140375;23;20021;-76
2024/01/12 05:08:46;;;;;;;0.20;0.20;;;;;;;-3.28;100.00;97852.13;6139662;23;20025;-74
2024/01/12 05:11:32;;;;;;;0.20;0.20;;;;;;;-3.33;100.00;97854.31;6141550;23;20022;-76
2024/01/12 05:14:18;;;;;;;0.30;0.30;;;;;;;-3.42;100.00;97858.53;6139519;23;20044;-75
2024/01/12 05:17:04;;;;;;;0.20;0.20;;;;;;;-3.43;100.00;97841.16;6141879;23;20053;-74
2024/01/12 05:19:49;;;;;;;0.20;0.20;;;;;;;-3.39;100.00;97845.19;6139689;23;20104;-75
2024/01/12 05:22:36;;;;;;;0.20;0.20;;;;;;;-3.38;100.00;97853.88;6140216;23;20025;-75
2024/01/12 05:25:22;;;;;;;0.20;0.20;;;;;;;-3.30;100.00;97853.22;6141837;23;20076;-74
2024/01/12 05:28:07;;;;;;;0.20;0.20;;;;;;;-3.43;100.00;97848.16;6139289;23;20420;-74
2024/01/12 05:30:53;;;;;;;0.20;0.20;;;;;;;-3.41;100.00;97843.66;6141922;23;20091;-75
2024/01/12 05:33:39;;;;;;;0.20;0.20;;;;;;;-3.31;100.00;97836.69;6140162;23;20030;-74
2024/01/12 05:36:25;;;;;;;0.20;0.20;;;;;;;-3.28;100.00;97839.03;6139833;23;20404;-75
2024/01/12 05:39:11;;;;;;;0.20;0.20;;;;;;;-3.17;100.00;97846.84;6141386;23;20096;-75
2024/01/12 05:41:57;;;;;;;0.25;0.25;;;;;;;-3.18;100.00;97844.38;6140311;23;20021;-76
2024/01/12 05:44:43;;;;;;;0.20;0.20;;;;;;;-3.28;100.00;97846.91;6142326;23;20025;-76
2024/01/12 05:47:29;;;;;;;0.20;0.20;;;;;;;-3.29;100.00;97854.88;6140177;23;20021;-75
2024/01/12 05:50:14;;;;;;;0.20;0.20;;;;;;;-3.28;100.00;97857.38;6140509;23;20095;-75
2024/01/12 05:53:00;;;;;;;0.20;0.20;;;;;;;-3.28;100.00;97854.75;6120412;23;20352;-75
2024/01/12 05:55:47;;;;;;;0.20;0.20;;;;;;;-3.28;100.00;97851.31;6140768;23;20022;-75
2024/01/12 05:58:33;;;;;;;0.20;0.20;;;;;;;-3.25;100.00;97867.59;6140343;23;20025;-76
2024/01/12 06:01:19;;;;;;;0.20;0.20;;;;;;;-3.29;100.00;97868.81;6138964;23;20021;-76
2024/01/12 06:04:07;;;;;;;0.22;0.22;;;;;;;-3.21;100.00;97862.94;6142070;23;20029;-76
2024/01/12 06:06:53;;;;;;;0.20;0.20;;;;;;;-3.23;100.00;97862.25;6142648;23;20029;-76
2024/01/12 06:09:40;;;;;;;0.20;0.20;;;;;;;-3.19;100.00;97858.38;6121624;23;20025;-77
2024/01/12 06:12:26;;;;;;;0.20;0.20;;;;;;;-3.22;100.00;97858.66;6140512;23;20040;-75
2024/01/12 06:15:12;;;;;;;0.20;0.20;;;;;;;-3.21;100.00;97862.94;6140662;23;20445;-79
2024/01/12 06:17:59;;;;;;;0.20;0.20;;;;;;;-3.18;100.00;97860.91;6140416;23;20511;-76
2024/01/12 06:20:45;;;;;;;0.30;0.30;;;;;;;-3.21;100.00;97861.13;6139541;23;20475;-76
2024/01/12 06:23:31;;;;;;;0.20;0.20;;;;;;;-3.30;100.00;97859.28;6139752;23;20025;-75
2024/01/12 06:26:17;;;;;;;0.20;0.20;;;;;;;-3.35;100.00;97866.69;6140369;23;20829;-75
2024/01/12 06:29:49;;;;;;;0.20;0.20;;;;;;;-3.34;100.00;97868.38;6140812;23;20453;-76
2024/01/12 06:32:38;;;;;;;0.20;0.20;;;;;;;-3.25;100.00;97878.09;6110435;23;20497;-75
2024/01/12 06:35:25;;;;;;;0.20;0.20;;;;;;;-3.31;100.00;97867.28;6112152;23;20068;-76
2024/01/12 06:38:11;;;;;;;0.25;0.25;;;;;;;-3.23;100.00;97883.19;6112376;23;20041;-75
2024/01/12 06:40:57;;;;;;;0.30;0.30;;;;;;;-3.24;100.00;97877.13;6092153;23;20025;-76
2024/01/12 06:43:43;;;;;;;0.20;0.20;;;;;;;-3.28;100.00;97875.69;6110523;23;20338;-75
2024/01/12 06:46:28;;;;;;;0.20;0.20;;;;;;;-3.20;100.00;97883.75;6111201;23;20077;-75
2024/01/12 06:49:14;;;;;;;0.30;0.30;;;;;;;-3.18;100.00;97887.09;6111295;23;20032;-76
2024/01/12 06:52:00;;;;;;;0.20;0.20;;;;;;;-3.15;100.00;97883.38;6111368;23;20402;-76
2024/01/12 06:54:46;;;;;;;0.20;0.20;;;;;;;-3.18;100.00;97887.09;6092234;23;20493;-77
2024/01/12 06:57:32;;;;;;;0.20;0.20;;;;;;;-3.23;100.00;97878.78;6111540;23;20126;-79
2024/01/12 07:00:19;;;;;;;0.20;0.20;;;;;;;-3.15;100.00;97886.81;6112046;23;20022;-77
2024/01/12 07:03:06;;;;;;;0.22;0.22;;;;;;;-3.23;100.00;97881.38;6138396;23;20018;-76
2024/01/12 07:05:52;;;;;;;0.20;0.20;;;;;;;-3.16;100.00;97887.78;6117314;23;20080;-75
2024/01/12 07:08:37;;;;;;;0.20;0.20;;;;;;;-3.13;100.00;97876.22;6142326;23;20270;-76
2024/01/12 07:11:24;;;;;;;0.20;0.20;;;;;;;-3.11;100.00;97866.47;6142781;23;20396;-77
2024/01/12 07:14:10;;;;;;;0.30;0.30;;;;;;;-3.03;100.00;97858.78;6142149;23;20026;-76
2024/01/12 07:16:56;;;;;;;0.30;0.30;;;;;;;-2.99;100.00;97857.56;6139664;23;20180;-76
2024/01/12 07:19:44;;;;;;;0.20;0.20;;;;;;;-2.95;100.00;97852.91;6139808;23;20031;-77
2024/01/12 07:22:29;;;;;;;0.13;0.13;;;;;;;-3.10;100.00;97873.34;6139101;23;20454;-77
2024/01/12 07:25:15;;;;;;;0.30;0.30;;;;;;;-3.23;100.00;97875.31;6140985;23;20105;-78
2024/01/12 07:28:03;;;;;;;0.20;0.20;;;;;;;-3.28;100.00;97865.22;6139910;23;20022;-76
2024/01/12 07:30:48;;;;;;;0.20;0.20;;;;;;;-3.34;100.00;97870.16;6138927;23;20083;-77
2024/01/12 07:33:34;;;;;;;0.20;0.20;;;;;;;-3.17;100.00;97864.34;6098029;23;20523;-78
2024/01/12 07:36:20;;;;;;;0.20;0.20;;;;;;;-3.16;100.00;97866.00;6140388;23;20424;-78
2024/01/12 07:39:07;;;;;;;0.45;0.30;;;;;;;-3.29;100.00;97873.22;6138986;23;20029;-76
2024/01/12 07:41:54;;;;;;;0.20;0.20;;;;;;;-3.05;100.00;97878.19;6140107;23;20044;-78
2024/01/12 07:44:41;;;;;;;0.20;0.20;;;;;;;-2.98;100.00;97888.03;6141673;23;20453;-76
2024/01/12 07:47:30;;;;;;;0.38;0.30;;;;;;;-2.87;100.00;97885.34;6138693;23;20112;-77
2024/01/12 07:50:15;;;;;;;0.30;0.25;;;;;;;-2.89;100.00;97884.63;6140735;23;20377;-77
2024/01/12 07:53:01;;;;;;;0.30;0.30;;;;;;;-2.71;100.00;97886.66;6139660;23;20029;-76
2024/01/12 07:55:49;;;;;;;0.20;0.20;;;;;;;-2.65;100.00;97886.94;6140701;23;20018;-77
2024/01/12 07:58:35;;;;;;;0.30;0.28;;;;;;;-2.70;100.00;97888.31;6139894;23;20032;-78
2024/01/12 08:01:21;;;;;;;0.28;0.28;;;;;;;-2.64;100.00;97896.50;6139622;23;20458;-77
2024/01/12 08:04:07;;;;;;;0.20;0.20;;;;;;;-2.73;100.00;97894.63;6140833;23;20360;-77
2024/01/12 08:06:53;;;;;;;0.20;0.20;;;;;;;-2.72;100.00;97875.34;6139236;23;20658;-76
2024/01/12 08:09:38;;;;;;;0.20;0.20;;;;;;;-2.68;100.00;97889.00;6140451;23;20273;-76
2024/01/12 08:12:24;;;;;;;0.20;0.20;;;;;;;-2.63;100.00;97892.91;6141717;23;20076;-78
2024/01/12 08:15:10;;;;;;;0.22;0.22;;;;;;;-2.67;100.00;97895.91;6142275;23;20451;-78
2024/01/12 08:17:56;;;;;;;0.20;0.20;;;;;;;-2.67;100.00;97888.03;6139290;23;20025;-76
2024/01/12 08:20:42;;;;;;;0.20;0.20;;;;;;;-2.55;100.00;97892.25;6118509;23;20504;-77
2024/01/12 08:23:28;;;;;;;0.20;0.20;;;;;;;-2.56;100.00;97895.84;6140165;23;20441;-77
2024/01/12 08:26:14;;;;;;;0.20;0.20;;;;;;;-2.61;100.00;97883.13;6141084;23;20026;-78
2024/01/12 08:29:01;;;;;;;0.20;0.20;;;;;;;-2.60;100.00;97891.81;6138283;23;20211;-76
2024/01/12 08:31:49;;;;;;;0.20;0.20;;;;;;;-2.69;100.00;97890.81;6097462;23;20029;-77
2024/01/12 08:34:35;;;;;;;0.20;0.20;;;;;;;-2.66;100.00;97890.53;6089824;23;20060;-77
2024/01/12 08:37:21;;;;;;;0.20;0.20;;;;;;;-2.78;100.00;97888.16;6112577;23;20052;-77
2024/01/12 08:40:07;;;;;;;0.30;0.30;;;;;;;-2.73;100.00;97899.88;6110949;23;20336;-77
2024/01/12 08:42:53;;;;;;;0.10;0.10;;;;;;;-2.52;100.00;97897.22;6111893;23;20021;-78
2024/01/12 08:45:39;;;;;;;0.20;0.20;;;;;;;-2.53;100.00;97896.41;6111822;23;20716;-77
2024/01/12 08:48:25;;;;;;;0.20;0.20;;;;;;;-2.52;100.00;97890.19;6110668;23;20026;-76
2024/01/12 08:51:11;;;;;;;0.20;0.20;;;;;;;-2.45;100.00;97894.91;6112197;23;20022;-76
2024/01/12 08:53:57;;;;;;;0.10;0.10;;;;;;;-2.50;100.00;97892.66;6110065;23;20130;-77
2024/01/12 08:56:43;;;;;;;0.20;0.20;;;;;;;-2.48;100.00;97903.06;6109308;23;20033;-78
2024/01/12 08:59:29;;;;;;;0.20;0.20;;;;;;;-2.43;100.00;97906.09;6110063;23;20026;-77
2024/01/12 09:02:14;;;;;;;0.20;0.20;;;;;;;-2.31;100.00;97910.28;6135209;23;20025;-77
2024/01/12 09:05:02;;;;;;;0.20;0.20;;;;;;;-2.27;100.00;97911.66;6140813;23;20441;-77
2024/01/12 09:07:48;;;;;;;0.20;0.20;;;;;;;-2.31;100.00;97900.63;6139302;23;20022;-77
2024/01/12 09:10:34;;;;;;;0.20;0.20;;;;;;;-2.30;100.00;97907.53;6142412;23;20449;-76
2024/01/12 09:13:20;;;;;;;0.10;0.10;;;;;;;-2.42;100.00;97908.56;6141221;23;20149;-77
2024/01/12 09:16:09;;;;;;;0.20;0.20;;;;;;;-2.41;100.00;97901.53;6141618;23;20025;-77
2024/01/12 09:18:55;;;;;;;0.17;0.17;;;;;;;-2.43;100.00;97906.91;6144329;23;20111;-76
2024/01/12 09:21:41;;;;;;;0.28;0.28;;;;;;;-2.32;100.00;97906.84;6120504;23;20412;-77
2024/01/12 09:24:27;;;;;;;0.32;0.30;;;;;;;-2.19;100.00;97911.81;6144321;23;20445;-77
2024/01/12 09:27:13;;;;;;;0.20;0.20;;;;;;;-2.21;100.00;97908.50;6142309;23;20099;-77
2024/01/12 09:29:59;;;;;;;0.20;0.20;;;;;;;-2.16;100.00;97902.88;6142164;23;20329;-77
2024/01/12 09:32:44;;;;;;;0.30;0.30;;;;;;;-2.12;100.00;97912.13;6110927;23;20029;-77
2024/01/12 09:35:30;;;;;;;0.20;0.20;;;;;;;-2.05;100.00;97914.09;6112990;23;20053;-77
2024/01/12 09:38:16;;;;;;;0.25;0.25;;;;;;;-2.04;100.00;97922.78;6110460;23;20033;-77
2024/01/12 09:41:02;;;;;;;0.20;0.20;;;;;;;-1.94;100.00;97923.66;6111479;23;20466;-77
2024/01/12 09:43:50;;;;;;;0.20;0.20;;;;;;;-2.05;100.00;97921.13;6068371;23;20080;-77
2024/01/12 09:46:45;;;;;;;0.20;0.20;;;;;;;-2.07;100.00;97923.88;6110365;23;20036;-77
2024/01/12 09:49:31;;;;;;;0.20;0.20;;;;;;;-2.11;100.00;97922.47;6110422;23;20028;-75
2024/01/12 09:52:17;;;;;;;0.20;0.20;;;;;;;-2.08;100.00;97929.28;6110098;23;20025;-76
2024/01/12 09:55:05;;;;;;;0.20;0.20;;;;;;;-2.18;100.00;97921.34;6111063;23;20580;-76
2024/01/12 09:57:52;;;;;;;0.20;0.20;;;;;;;-2.20;100.00;97939.03;6106354;23;20053;-76
2024/01/12 10:00:40;;;;;;;0.30;0.30;;;;;;;-2.20;100.00;97927.69;6114743;23;20088;-75
2024/01/12 10:03:27;;;;;;;0.20;0.20;;;;;;;-2.20;100.00;97930.31;6140791;23;20499;-76
2024/01/12 10:06:14;;;;;;;0.20;0.20;;;;;;;-2.11;100.00;97932.16;6141489;23;20031;-76
2024/01/12 10:09:00;;;;;;;0.20;0.20;;;;;;;-2.23;100.00;97930.59;6142508;23;20045;-77
2024/01/12 10:11:46;;;;;;;0.20;0.20;;;;;;;-2.16;100.00;97923.88;6063320;23;20026;-75
2024/01/12 10:14:32;;;;;;;0.17;0.17;;;;;;;-2.03;100.00;97934.94;6112528;23;20545;-76
2024/01/12 10:17:18;;;;;;;0.20;0.20;;;;;;;-2.02;100.00;97941.88;6113726;23;20025;-76
2024/01/12 10:20:06;;;;;;;0.20;0.20;;;;;;;-2.19;100.00;97935.44;6117987;23;20053;-76
2024/01/12 10:22:58;;;;;;;0.20;0.20;;;;;;;-2.21;100.00;97934.75;6101198;23;20136;-75
2024/01/12 10:25:44;;;;;;;0.20;0.20;;;;;;;-2.31;100.00;97929.47;6138396;23;21005;-76
2024/01/12 10:28:30;;;;;;;0.20;0.20;;;;;;;-2.31;100.00;97912.91;6139737;23;20483;-76
2024/01/12 10:31:18;;;;;;;0.20;0.20;;;;;;;-2.13;100.00;97921.78;6139480;23;20354;-76
2024/01/12 10:34:07;;;;;;;0.20;0.20;;;;;;;-1.99;100.00;97916.19;6141122;23;20025;-75
2024/01/12 10:36:58;;;;;;;0.20;0.20;;;;;;;-2.04;100.00;97909.66;6138692;23;20025;-76
2024/01/12 10:39:46;;;;;;;0.20;0.20;;;;;;;-2.00;100.00;97896.16;6136266;23;20021;-75
2024/01/12 10:42:34;;;;;;;0.20;0.20;;;;;;;-1.99;100.00;97903.06;6133269;23;20053;-76
2024/01/12 10:45:21;;;;;;;0.20;0.20;;;;;;;-1.99;100.00;97910.09;6083930;23;20437;-76
2024/01/12 10:48:10;;;;;;;0.20;0.20;;;;;;;-1.89;100.00;97918.00;6133588;23;20372;-76
2024/01/12 10:51:00;;;;;;;0.35;0.30;;;;;;;-2.05;100.00;97915.88;6136542;23;20441;-75
2024/01/12 10:53:59;;;;;;;0.20;0.20;;;;;;;-2.09;100.00;97910.09;6137657;23;20064;-76
2024/01/12 10:56:45;;;;;;;0.15;0.15;;;;;;;-1.96;100.00;97905.41;6134105;23;20437;-76
2024/01/12 10:59:31;;;;;;;0.30;0.30;;;;;;;-1.78;100.00;97908.22;6134565;23;20025;-76
2024/01/12 11:02:18;;;;;;;0.30;0.30;;;;;;;-1.92;100.00;97913.03;6116855;23;20029;-76
2024/01/12 11:05:08;;;;;;;0.20;0.20;;;;;;;-2.07;100.00;97892.41;6139413;23;20026;-75
2024/01/12 11:07:58;;;;;;;0.28;0.28;;;;;;;-2.10;100.00;97886.59;6137999;23;20096;-75
2024/01/12 11:10:51;;;;;;;0.20;0.20;;;;;;;-2.06;100.00;97891.44;6140199;23;20406;-75
2024/01/12 11:13:37;;;;;;;0.20;0.20;;;;;;;-2.10;100.00;97878.72;6137709;23;20068;-76
2024/01/12 11:16:23;;;;;;;0.20;0.20;;;;;;;-2.09;100.00;97889.09;6137611;23;20025;-75
2024/01/12 11:19:15;;;;;;;0.30;0.30;;;;;;;-2.11;100.00;97875.25;6138193;23;20112;-76
2024/01/12 11:22:09;;;;;;;0.20;0.20;;;;;;;-2.14;100.00;97874.72;6138161;23;20500;-75
2024/01/12 11:24:57;;;;;;;0.20;0.20;;;;;;;-2.15;100.00;97857.31;6116613;23;20028;-75
2024/01/12 11:27:51;;;;;;;0.17;0.17;;;;;;;-2.05;100.00;97866.88;6137874;23;20029;-76
2024/01/12 11:30:41;;;;;;;0.20;0.20;;;;;;;-2.20;100.00;97864.75;6137415;23;20432;-76
2024/01/12 11:33:27;;;;;;;0.20;0.20;;;;;;;-2.19;100.00;97851.50;6138576;23;20025;-75
2024/01/12 11:36:14;;;;;;;0.20;0.20;;;;;;;-2.29;100.00;97851.50;6140012;23;20021;-76
2024/01/12 11:39:00;;;;;;;0.20;0.20;;;;;;;-2.33;100.00;97838.78;6125752;23;20025;-75
2024/01/12 11:41:46;;;;;;;0.30;0.30;;;;;;;-2.35;100.00;97836.28;6136544;23;20029;-76
2024/01/12 11:44:33;;;;;;;0.30;0.30;;;;;;;-2.22;100.00;97843.91;6096398;23;20537;-76
2024/01/12 11:47:19;;;;;;;0.25;0.25;;;;;;;-2.15;100.00;97846.84;6130187;23;20032;-76
2024/01/12 11:50:07;;;;;;;0.20;0.20;;;;;;;-2.10;100.00;97849.84;6133936;23;20310;-76
2024/01/12 11:53:01;;;;;;;0.40;0.32;;;;;;;-2.04;100.00;97851.94;6117617;23;20281;-75
2024/01/12 11:55:46;;;;;;;0.32;0.30;;;;;;;-2.04;100.00;97852.78;6136437;23;20360;-75
2024/01/12 11:58:32;;;;;;;0.30;0.30;;;;;;;-2.14;100.00;97843.25;6133613;23;20390;-75
2024/01/12 12:01:19;;;;;;;0.20;0.20;;;;;;;-2.27;100.00;97843.47;6135462;23;20021;-76
2024/01/12 12:04:04;;;;;;;0.20;0.20;;;;;;;-2.33;100.00;97844.03;6138572;23;20855;-75
2024/01/12 12:06:52;;;;;;;0.45;0.30;;;;;;;-2.39;100.00;97840.16;6116581;23;20519;-75
2024/01/12 12:09:38;;;;;;;0.28;0.28;;;;;;;-2.33;100.00;97844.03;6135553;23;20420;-76
2024/01/12 12:12:24;;;;;;;0.20;0.20;;;;;;;-2.33;100.00;97844.03;6136496;23;20025;-76
2024/01/12 12:15:12;;;;;;;0.40;0.30;;;;;;;-2.33;100.00;97844.03;6138785;23;20022;-76
2024/01/12 12:17:58;;;;;;;0.30;0.30;;;;;;;-2.34;100.00;97842.34;6114255;23;20025;-75
2024/01/12 12:20:44;;;;;;;0.80;0.50;;;;;;;-2.30;100.00;97843.75;6138714;23;20033;-75
2024/01/12 12:23:33;;;;;;;0.20;0.20;;;;;;;-2.19;100.00;97843.63;6137040;23;20263;-75
2024/01/12 12:26:19;;;;;;;0.30;0.30;;;;;;;-2.17;100.00;97840.91;6117067;23;20517;-76
2024/01/12 12:29:05;;;;;;;0.30;0.30;;;;;;;-2.01;100.00;97834.16;6138789;23;20076;-76
2024/01/12 12:31:51;;;;;;;0.63;0.45;;;;;;;-2.17;100.00;97823.38;6137464;23;20048;-75
2024/01/12 12:34:43;;;;;;;0.32;0.30;;;;;;;-2.61;100.00;97817.59;6139094;23;20033;-76
2024/01/12 12:37:28;;;;;;;0.20;0.20;;;;;;;-2.41;100.00;97825.50;6113650;23;20088;-76
2024/01/12 12:40:16;;;;;;;0.20;0.20;;;;;;;-2.35;100.00;97830.22;6132021;23;20108;-75
2024/01/12 12:43:02;;;;;;;0.30;0.20;;;;;;;-2.20;100.00;97828.03;6135380;23;20029;-75
2024/01/12 12:45:52;;;;;;;0.20;0.20;;;;;;;-2.14;100.00;97812.59;6093141;23;20025;-76
2024/01/12 12:48:41;;;;;;;0.20;0.20;;;;;;;-2.40;100.00;97817.53;6130667;23;20033;-76
2024/01/12 12:51:27;;;;;;;0.20;0.20;;;;;;;-2.61;100.00;97809.72;6132243;23;20059;-76
2024/01/12 12:54:13;;;;;;;0.30;0.30;;;;;;;-2.33;100.00;97815.19;6136976;23;20026;-75